createdAt,value
2022-09-23T00:00:09.177Z,88.55
2022-09-23T00:00:39.759Z,88.34
2022-09-23T00:01:10.394Z,88.45
2022-09-23T00:01:41.200Z,88.24
2022-09-23T00:02:11.893Z,88.14
2022-09-23T00:02:42.589Z,88.14
2022-09-23T00:03:13.170Z,87.83
2022-09-23T00:03:43.709Z,88.04
2022-09-23T00:04:14.234Z,87.93
2022-09-23T00:04:44.771Z,87.73
2022-09-23T00:05:15.310Z,87.73
2022-09-23T00:05:45.899Z,88.07
2022-09-23T00:06:16.466Z,88.28
2022-09-23T00:06:47.035Z,88.18
2022-09-23T00:07:17.600Z,88.28
2022-09-23T00:07:48.172Z,88.28
2022-09-23T00:08:18.723Z,88.28
2022-09-23T00:08:49.307Z,88.49
2022-09-23T00:09:19.883Z,88.70
2022-09-23T00:09:50.432Z,88.80
2022-09-23T00:10:20.984Z,88.59
2022-09-23T00:10:51.560Z,88.49
2022-09-23T00:11:22.086Z,88.18
2022-09-23T00:11:52.675Z,88.18
2022-09-23T00:12:23.271Z,88.28
2022-09-23T00:12:53.816Z,88.18
2022-09-23T00:13:24.381Z,88.07
2022-09-23T00:13:54.971Z,87.76
2022-09-23T00:14:25.543Z,87.56
2022-09-23T00:14:56.106Z,87.76
2022-09-23T00:15:26.682Z,87.76
2022-09-23T00:15:57.271Z,88.07
2022-09-23T00:16:27.916Z,88.39
2022-09-23T00:16:58.533Z,88.39
2022-09-23T00:17:29.123Z,88.59
2022-09-23T00:17:59.669Z,88.39
2022-09-23T00:18:30.194Z,88.28
2022-09-23T00:19:00.802Z,87.87
2022-09-23T00:19:31.372Z,87.56
2022-09-23T00:20:01.945Z,87.46
2022-09-23T00:20:32.547Z,87.66
2022-09-23T00:21:03.157Z,87.76
2022-09-23T00:21:33.695Z,87.87
2022-09-23T00:22:04.266Z,87.97
2022-09-23T00:22:34.813Z,87.87
2022-09-23T00:23:05.423Z,87.81
2022-09-23T00:23:36.002Z,88.01
2022-09-23T00:24:06.687Z,88.22
2022-09-23T00:24:37.351Z,88.74
2022-09-23T00:25:07.923Z,88.84
2022-09-23T00:25:38.520Z,88.84
2022-09-23T00:26:09.097Z,89.04
2022-09-23T00:26:39.664Z,88.53
2022-09-23T00:27:10.216Z,88.22
2022-09-23T00:27:40.792Z,88.01
2022-09-23T00:28:11.361Z,88.53
2022-09-23T00:28:41.956Z,89.15
2022-09-23T00:29:12.525Z,88.84
2022-09-23T00:29:43.061Z,88.74
2022-09-23T00:30:13.646Z,88.53
2022-09-23T00:30:44.273Z,88.43
2022-09-23T00:31:14.916Z,88.53
2022-09-23T00:31:45.469Z,88.32
2022-09-23T00:32:16.029Z,88.22
2022-09-23T00:32:46.583Z,88.53
2022-09-23T00:33:17.155Z,88.64
2022-09-23T00:33:47.719Z,88.74
2022-09-23T00:34:18.258Z,88.67
2022-09-23T00:34:48.802Z,88.74
2022-09-23T00:35:19.364Z,88.67
2022-09-23T00:35:49.932Z,88.74
2022-09-23T00:36:20.536Z,88.88
2022-09-23T00:36:51.055Z,88.36
2022-09-23T00:37:21.599Z,88.26
2022-09-23T00:37:52.169Z,88.26
2022-09-23T00:38:22.730Z,88.67
2022-09-23T00:38:53.328Z,88.26
2022-09-23T00:39:23.883Z,88.26
2022-09-23T00:39:54.415Z,88.57
2022-09-23T00:40:25.000Z,88.16
2022-09-23T00:40:55.571Z,88.16
2022-09-23T00:41:26.137Z,88.46
2022-09-23T00:41:56.735Z,88.57
2022-09-23T00:42:27.305Z,88.88
2022-09-23T00:42:57.837Z,88.67
2022-09-23T00:43:28.405Z,88.26
2022-09-23T00:43:58.969Z,88.26
2022-09-23T00:44:29.535Z,88.78
2022-09-23T00:45:00.131Z,88.26
2022-09-23T00:45:30.706Z,88.16
2022-09-23T00:46:01.351Z,88.16
2022-09-23T00:46:31.949Z,88.57
2022-09-23T00:47:02.498Z,88.36
2022-09-23T00:47:33.081Z,88.46
2022-09-23T00:48:03.664Z,88.46
2022-09-23T00:48:34.217Z,88.36
2022-09-23T00:49:04.819Z,88.57
2022-09-23T00:49:35.372Z,88.98
2022-09-23T00:50:05.944Z,89.61
2022-09-23T00:50:36.540Z,90.02
2022-09-23T00:51:07.093Z,89.92
2022-09-23T00:51:37.685Z,89.54
2022-09-23T00:52:08.216Z,89.19
2022-09-23T00:52:38.776Z,88.88
2022-09-23T00:53:09.322Z,88.78
2022-09-23T00:53:39.880Z,88.88
2022-09-23T00:54:10.475Z,88.78
2022-09-23T00:54:41.005Z,88.78
2022-09-23T00:55:11.582Z,88.82
2022-09-23T00:55:42.156Z,89.09
2022-09-23T00:56:12.720Z,88.98
2022-09-23T00:56:43.305Z,89.13
2022-09-23T00:57:13.881Z,89.19
2022-09-23T00:57:44.457Z,89.09
2022-09-23T00:58:15.021Z,88.88
2022-09-23T00:58:45.605Z,88.88
2022-09-23T00:59:16.163Z,88.88
2022-09-23T00:59:46.716Z,88.78
2022-09-23T01:00:17.260Z,88.57
2022-09-23T01:00:47.848Z,88.46
2022-09-23T01:01:18.496Z,88.71
2022-09-23T01:01:49.099Z,88.67
2022-09-23T01:02:19.726Z,88.71
2022-09-23T01:02:50.378Z,88.98
2022-09-23T01:03:20.955Z,88.78
2022-09-23T01:03:51.546Z,88.88
2022-09-23T01:04:22.124Z,88.57
2022-09-23T01:04:52.728Z,88.57
2022-09-23T01:05:23.264Z,88.57
2022-09-23T01:05:53.837Z,88.67
2022-09-23T01:06:24.393Z,88.88
2022-09-23T01:06:54.980Z,88.78
2022-09-23T01:07:25.540Z,88.67
2022-09-23T01:07:56.104Z,88.40
2022-09-23T01:08:26.666Z,88.30
2022-09-23T01:08:57.235Z,89.03
2022-09-23T01:09:27.825Z,89.03
2022-09-23T01:09:58.381Z,89.23
2022-09-23T01:10:28.952Z,89.13
2022-09-23T01:10:59.540Z,89.44
2022-09-23T01:11:30.082Z,89.03
2022-09-23T01:12:00.618Z,88.92
2022-09-23T01:12:31.172Z,88.82
2022-09-23T01:13:01.720Z,88.82
2022-09-23T01:13:32.295Z,88.71
2022-09-23T01:14:02.879Z,88.71
2022-09-23T01:14:33.491Z,88.71
2022-09-23T01:15:04.094Z,88.71
2022-09-23T01:15:34.687Z,88.82
2022-09-23T01:16:05.257Z,88.92
2022-09-23T01:16:35.910Z,88.92
2022-09-23T01:17:06.591Z,88.92
2022-09-23T01:17:37.255Z,88.71
2022-09-23T01:18:07.839Z,88.71
2022-09-23T01:18:38.454Z,88.61
2022-09-23T01:19:09.023Z,88.61
2022-09-23T01:19:39.574Z,89.13
2022-09-23T01:20:10.152Z,89.13
2022-09-23T01:20:40.716Z,89.23
2022-09-23T01:21:11.294Z,89.03
2022-09-23T01:21:41.863Z,89.13
2022-09-23T01:22:12.438Z,89.34
2022-09-23T01:22:43.060Z,88.71
2022-09-23T01:23:13.612Z,88.61
2022-09-23T01:23:44.187Z,88.61
2022-09-23T01:24:14.757Z,88.92
2022-09-23T01:24:45.314Z,89.13
2022-09-23T01:25:15.913Z,89.03
2022-09-23T01:25:46.455Z,88.92
2022-09-23T01:26:16.988Z,88.61
2022-09-23T01:26:47.585Z,88.51
2022-09-23T01:27:18.134Z,88.92
2022-09-23T01:27:48.706Z,89.07
2022-09-23T01:28:19.276Z,89.07
2022-09-23T01:28:49.844Z,89.38
2022-09-23T01:29:20.378Z,89.58
2022-09-23T01:29:50.954Z,90.00
2022-09-23T01:30:21.509Z,90.31
2022-09-23T01:30:52.131Z,90.31
2022-09-23T01:31:22.894Z,89.89
2022-09-23T01:31:53.545Z,90.00
2022-09-23T01:32:24.092Z,90.00
2022-09-23T01:32:54.663Z,89.69
2022-09-23T01:33:25.250Z,89.58
2022-09-23T01:33:55.833Z,89.21
2022-09-23T01:34:26.392Z,89.52
2022-09-23T01:34:56.970Z,89.94
2022-09-23T01:35:27.581Z,90.14
2022-09-23T01:35:58.143Z,90.66
2022-09-23T01:36:28.718Z,90.87
2022-09-23T01:36:59.294Z,90.97
2022-09-23T01:37:29.932Z,90.77
2022-09-23T01:38:00.505Z,90.87
2022-09-23T01:38:31.037Z,91.18
2022-09-23T01:39:01.621Z,91.18
2022-09-23T01:39:32.168Z,90.97
2022-09-23T01:40:02.889Z,91.28
2022-09-23T01:40:33.574Z,91.39
2022-09-23T01:41:04.169Z,90.97
2022-09-23T01:41:34.722Z,90.66
2022-09-23T01:42:05.248Z,90.66
2022-09-23T01:42:35.781Z,90.56
2022-09-23T01:43:06.348Z,90.66
2022-09-23T01:43:36.905Z,90.77
2022-09-23T01:44:07.481Z,90.56
2022-09-23T01:44:38.030Z,90.77
2022-09-23T01:45:08.606Z,90.66
2022-09-23T01:45:39.189Z,90.66
2022-09-23T01:46:09.733Z,90.56
2022-09-23T01:46:40.301Z,90.45
2022-09-23T01:47:10.897Z,90.56
2022-09-23T01:47:41.482Z,90.25
2022-09-23T01:48:12.070Z,89.94
2022-09-23T01:48:42.714Z,90.04
2022-09-23T01:49:13.244Z,90.14
2022-09-23T01:49:43.811Z,90.45
2022-09-23T01:50:14.379Z,90.25
2022-09-23T01:50:44.943Z,90.14
2022-09-23T01:51:15.511Z,90.35
2022-09-23T01:51:46.102Z,90.35
2022-09-23T01:52:16.666Z,90.35
2022-09-23T01:52:47.278Z,90.25
2022-09-23T01:53:17.842Z,90.25
2022-09-23T01:53:48.376Z,90.04
2022-09-23T01:54:18.933Z,90.04
2022-09-23T01:54:49.471Z,90.14
2022-09-23T01:55:20.022Z,90.00
2022-09-23T01:55:50.569Z,90.00
2022-09-23T01:56:21.176Z,89.83
2022-09-23T01:56:51.726Z,89.42
2022-09-23T01:57:22.289Z,89.42
2022-09-23T01:57:52.848Z,89.48
2022-09-23T01:58:23.399Z,89.62
2022-09-23T01:58:53.969Z,89.52
2022-09-23T01:59:24.512Z,89.58
2022-09-23T01:59:55.066Z,89.52
2022-09-23T02:00:25.619Z,89.73
2022-09-23T02:00:56.203Z,89.89
2022-09-23T02:01:26.777Z,89.62
2022-09-23T02:01:57.380Z,89.42
2022-09-23T02:02:27.984Z,89.89
2022-09-23T02:02:58.521Z,89.89
2022-09-23T02:03:29.105Z,89.62
2022-09-23T02:03:59.807Z,89.69
2022-09-23T02:04:30.540Z,89.94
2022-09-23T02:05:01.067Z,89.89
2022-09-23T02:05:31.624Z,89.83
2022-09-23T02:06:02.180Z,89.62
2022-09-23T02:06:32.714Z,89.42
2022-09-23T02:07:03.251Z,89.42
2022-09-23T02:07:33.836Z,89.73
2022-09-23T02:08:04.410Z,89.83
2022-09-23T02:08:34.959Z,90.04
2022-09-23T02:09:05.511Z,90.04
2022-09-23T02:09:36.089Z,90.35
2022-09-23T02:10:06.664Z,90.77
2022-09-23T02:10:37.212Z,90.77
2022-09-23T02:11:07.780Z,90.66
2022-09-23T02:11:38.363Z,90.66
2022-09-23T02:12:08.941Z,90.66
2022-09-23T02:12:39.496Z,90.77
2022-09-23T02:13:10.089Z,90.56
2022-09-23T02:13:40.661Z,90.45
2022-09-23T02:14:11.242Z,90.35
2022-09-23T02:14:41.795Z,90.14
2022-09-23T02:15:12.390Z,90.04
2022-09-23T02:15:42.955Z,89.83
2022-09-23T02:16:13.604Z,89.73
2022-09-23T02:16:44.224Z,89.73
2022-09-23T02:17:14.805Z,89.73
2022-09-23T02:17:45.370Z,90.29
2022-09-23T02:18:15.943Z,90.81
2022-09-23T02:18:46.495Z,90.91
2022-09-23T02:19:17.064Z,90.60
2022-09-23T02:19:47.633Z,90.81
2022-09-23T02:20:18.200Z,91.33
2022-09-23T02:20:48.770Z,91.53
2022-09-23T02:21:19.301Z,91.22
2022-09-23T02:21:49.879Z,91.33
2022-09-23T02:22:20.458Z,91.74
2022-09-23T02:22:51.034Z,91.85
2022-09-23T02:23:21.633Z,91.74
2022-09-23T02:23:52.191Z,91.53
2022-09-23T02:24:22.745Z,91.43
2022-09-23T02:24:53.300Z,91.33
2022-09-23T02:25:23.882Z,91.02
2022-09-23T02:25:54.488Z,90.91
2022-09-23T02:26:25.055Z,90.91
2022-09-23T02:26:55.621Z,91.02
2022-09-23T02:27:26.210Z,90.81
2022-09-23T02:27:56.782Z,90.39
2022-09-23T02:28:27.339Z,90.39
2022-09-23T02:28:57.878Z,90.39
2022-09-23T02:29:28.450Z,90.50
2022-09-23T02:29:59.028Z,90.81
2022-09-23T02:30:29.613Z,90.60
2022-09-23T02:31:00.165Z,90.81
2022-09-23T02:31:30.859Z,90.70
2022-09-23T02:32:01.540Z,90.60
2022-09-23T02:32:32.116Z,90.66
2022-09-23T02:33:02.666Z,90.35
2022-09-23T02:33:33.243Z,89.98
2022-09-23T02:34:03.819Z,90.08
2022-09-23T02:34:34.359Z,90.39
2022-09-23T02:35:04.897Z,90.29
2022-09-23T02:35:35.462Z,90.29
2022-09-23T02:36:06.050Z,90.08
2022-09-23T02:36:36.622Z,89.67
2022-09-23T02:37:07.182Z,89.77
2022-09-23T02:37:37.738Z,89.98
2022-09-23T02:38:08.285Z,90.29
2022-09-23T02:38:38.886Z,90.50
2022-09-23T02:39:09.422Z,90.39
2022-09-23T02:39:39.999Z,90.39
2022-09-23T02:40:10.634Z,90.39
2022-09-23T02:40:41.232Z,90.39
2022-09-23T02:41:11.798Z,90.39
2022-09-23T02:41:42.345Z,90.39
2022-09-23T02:42:12.892Z,90.81
2022-09-23T02:42:43.447Z,90.81
2022-09-23T02:43:14.013Z,90.70
2022-09-23T02:43:44.594Z,90.70
2022-09-23T02:44:15.171Z,90.50
2022-09-23T02:44:45.759Z,90.50
2022-09-23T02:45:16.281Z,90.50
2022-09-23T02:45:46.884Z,90.39
2022-09-23T02:46:17.527Z,90.29
2022-09-23T02:46:48.101Z,90.50
2022-09-23T02:47:18.656Z,90.29
2022-09-23T02:47:49.242Z,90.19
2022-09-23T02:48:19.810Z,90.39
2022-09-23T02:48:50.366Z,90.50
2022-09-23T02:49:20.938Z,90.70
2022-09-23T02:49:51.512Z,90.81
2022-09-23T02:50:22.079Z,90.39
2022-09-23T02:50:52.644Z,90.39
2022-09-23T02:51:23.203Z,90.39
2022-09-23T02:51:53.763Z,90.29
2022-09-23T02:52:24.335Z,90.19
2022-09-23T02:52:54.927Z,89.98
2022-09-23T02:53:25.532Z,90.08
2022-09-23T02:53:56.119Z,90.29
2022-09-23T02:54:26.651Z,90.19
2022-09-23T02:54:57.221Z,89.98
2022-09-23T02:55:27.800Z,89.87
2022-09-23T02:55:58.324Z,89.77
2022-09-23T02:56:28.933Z,89.92
2022-09-23T02:56:59.502Z,90.44
2022-09-23T02:57:30.084Z,90.95
2022-09-23T02:58:00.663Z,91.27
2022-09-23T02:58:31.226Z,91.27
2022-09-23T02:59:01.794Z,90.85
2022-09-23T02:59:32.368Z,90.44
2022-09-23T03:00:02.932Z,90.02
2022-09-23T03:00:33.509Z,89.92
2022-09-23T03:01:04.168Z,90.23
2022-09-23T03:01:34.776Z,90.19
2022-09-23T03:02:05.370Z,89.81
2022-09-23T03:02:35.972Z,89.71
2022-09-23T03:03:06.542Z,89.81
2022-09-23T03:03:37.106Z,89.92
2022-09-23T03:04:07.680Z,89.92
2022-09-23T03:04:38.258Z,90.12
2022-09-23T03:05:08.814Z,89.92
2022-09-23T03:05:39.395Z,90.02
2022-09-23T03:06:09.954Z,90.12
2022-09-23T03:06:40.527Z,90.12
2022-09-23T03:07:11.091Z,90.54
2022-09-23T03:07:41.670Z,91.06
2022-09-23T03:08:12.211Z,91.62
2022-09-23T03:08:42.793Z,91.93
2022-09-23T03:09:13.400Z,92.10
2022-09-23T03:09:43.942Z,92.10
2022-09-23T03:10:14.526Z,91.93
2022-09-23T03:10:45.108Z,91.68
2022-09-23T03:11:15.661Z,91.47
2022-09-23T03:11:46.216Z,90.95
2022-09-23T03:12:16.784Z,90.85
2022-09-23T03:12:47.388Z,90.95
2022-09-23T03:13:17.953Z,90.95
2022-09-23T03:13:48.521Z,90.95
2022-09-23T03:14:19.073Z,90.75
2022-09-23T03:14:49.625Z,90.85
2022-09-23T03:15:20.197Z,90.54
2022-09-23T03:15:50.775Z,90.44
2022-09-23T03:16:21.403Z,90.64
2022-09-23T03:16:52.016Z,90.33
2022-09-23T03:17:22.621Z,90.23
2022-09-23T03:17:53.198Z,90.33
2022-09-23T03:18:23.766Z,90.44
2022-09-23T03:18:54.333Z,90.54
2022-09-23T03:19:24.912Z,90.44
2022-09-23T03:19:55.495Z,90.44
2022-09-23T03:20:26.064Z,90.44
2022-09-23T03:20:56.631Z,90.54
2022-09-23T03:21:27.186Z,90.23
2022-09-23T03:21:57.744Z,90.02
2022-09-23T03:22:28.286Z,90.02
2022-09-23T03:22:58.857Z,89.92
2022-09-23T03:23:29.438Z,90.33
2022-09-23T03:23:59.972Z,90.85
2022-09-23T03:24:30.542Z,90.64
2022-09-23T03:25:01.061Z,90.54
2022-09-23T03:25:31.619Z,90.54
2022-09-23T03:26:02.184Z,90.44
2022-09-23T03:26:32.753Z,90.12
2022-09-23T03:27:03.310Z,89.92
2022-09-23T03:27:33.857Z,90.12
2022-09-23T03:28:04.434Z,90.44
2022-09-23T03:28:35.029Z,90.44
2022-09-23T03:29:05.567Z,90.02
2022-09-23T03:29:36.152Z,89.92
2022-09-23T03:30:06.703Z,89.92
2022-09-23T03:30:37.282Z,89.92
2022-09-23T03:31:07.852Z,89.81
2022-09-23T03:31:38.574Z,89.81
2022-09-23T03:32:09.249Z,89.92
2022-09-23T03:32:39.805Z,90.12
2022-09-23T03:33:10.396Z,90.12
2022-09-23T03:33:40.991Z,89.92
2022-09-23T03:34:11.573Z,90.33
2022-09-23T03:34:42.139Z,90.44
2022-09-23T03:35:12.709Z,89.92
2022-09-23T03:35:43.286Z,89.81
2022-09-23T03:36:13.849Z,89.92
2022-09-23T03:36:44.376Z,89.40
2022-09-23T03:37:14.913Z,89.29
2022-09-23T03:37:45.455Z,89.71
2022-09-23T03:38:16.050Z,90.12
2022-09-23T03:38:46.607Z,90.02
2022-09-23T03:39:17.183Z,89.50
2022-09-23T03:39:47.761Z,89.50
2022-09-23T03:40:18.372Z,89.54
2022-09-23T03:40:48.972Z,89.65
2022-09-23T03:41:19.534Z,89.86
2022-09-23T03:41:50.103Z,90.37
2022-09-23T03:42:20.678Z,90.37
2022-09-23T03:42:51.221Z,90.06
2022-09-23T03:43:21.818Z,90.06
2022-09-23T03:43:52.366Z,90.17
2022-09-23T03:44:22.930Z,89.86
2022-09-23T03:44:53.477Z,89.54
2022-09-23T03:45:24.157Z,89.54
2022-09-23T03:45:54.822Z,89.86
2022-09-23T03:46:25.376Z,90.27
2022-09-23T03:46:55.947Z,90.37
2022-09-23T03:47:26.495Z,90.48
2022-09-23T03:47:57.066Z,90.37
2022-09-23T03:48:27.659Z,90.27
2022-09-23T03:48:58.268Z,90.06
2022-09-23T03:49:28.834Z,89.96
2022-09-23T03:49:59.392Z,90.17
2022-09-23T03:50:29.960Z,89.86
2022-09-23T03:51:00.656Z,89.75
2022-09-23T03:51:31.239Z,89.75
2022-09-23T03:52:01.796Z,89.96
2022-09-23T03:52:32.379Z,90.37
2022-09-23T03:53:02.967Z,90.27
2022-09-23T03:53:33.561Z,90.37
2022-09-23T03:54:04.136Z,90.58
2022-09-23T03:54:34.795Z,90.69
2022-09-23T03:55:05.364Z,90.69
2022-09-23T03:55:35.889Z,91.00
2022-09-23T03:56:06.445Z,91.10
2022-09-23T03:56:37.069Z,90.79
2022-09-23T03:57:07.627Z,90.69
2022-09-23T03:57:38.165Z,90.89
2022-09-23T03:58:08.712Z,90.89
2022-09-23T03:58:39.265Z,90.89
2022-09-23T03:59:09.862Z,90.48
2022-09-23T03:59:40.419Z,90.37
2022-09-23T04:00:11.034Z,90.27
2022-09-23T04:00:41.671Z,89.54
2022-09-23T04:01:12.377Z,89.54
2022-09-23T04:01:43.042Z,90.10
2022-09-23T04:02:13.810Z,90.62
2022-09-23T04:02:44.443Z,90.62
2022-09-23T04:03:15.004Z,90.52
2022-09-23T04:03:45.569Z,90.62
2022-09-23T04:04:16.118Z,90.79
2022-09-23T04:04:46.696Z,90.62
2022-09-23T04:05:17.284Z,90.20
2022-09-23T04:05:47.853Z,90.20
2022-09-23T04:06:18.457Z,90.20
2022-09-23T04:06:49.014Z,90.10
2022-09-23T04:07:19.580Z,90.41
2022-09-23T04:07:50.139Z,90.31
2022-09-23T04:08:20.728Z,90.20
2022-09-23T04:08:51.285Z,90.20
2022-09-23T04:09:21.822Z,89.89
2022-09-23T04:09:52.388Z,89.79
2022-09-23T04:10:22.992Z,89.79
2022-09-23T04:10:54.997Z,89.79
2022-09-23T04:11:24.570Z,90.00
2022-09-23T04:11:55.162Z,90.10
2022-09-23T04:12:25.749Z,90.41
2022-09-23T04:12:56.323Z,90.62
2022-09-23T04:13:26.873Z,90.83
2022-09-23T04:13:57.438Z,91.03
2022-09-23T04:14:27.994Z,90.62
2022-09-23T04:14:58.548Z,90.41
2022-09-23T04:15:29.119Z,90.20
2022-09-23T04:15:59.730Z,90.41
2022-09-23T04:16:30.357Z,90.72
2022-09-23T04:17:00.931Z,91.14
2022-09-23T04:17:31.463Z,91.24
2022-09-23T04:18:02.004Z,91.24
2022-09-23T04:18:32.561Z,91.24
2022-09-23T04:19:04.374Z,90.62
2022-09-23T04:19:34.049Z,90.31
2022-09-23T04:20:04.584Z,90.00
2022-09-23T04:20:35.150Z,89.79
2022-09-23T04:21:05.702Z,89.79
2022-09-23T04:21:36.270Z,89.89
2022-09-23T04:22:06.854Z,90.10
2022-09-23T04:22:37.440Z,90.52
2022-09-23T04:23:07.976Z,90.72
2022-09-23T04:23:38.564Z,90.72
2022-09-23T04:24:09.166Z,90.83
2022-09-23T04:24:39.823Z,90.62
2022-09-23T04:25:10.383Z,90.52
2022-09-23T04:25:40.955Z,90.62
2022-09-23T04:26:11.508Z,90.41
2022-09-23T04:26:42.079Z,90.41
2022-09-23T04:27:12.645Z,90.52
2022-09-23T04:27:43.210Z,90.83
2022-09-23T04:28:13.783Z,91.03
2022-09-23T04:28:44.339Z,90.72
2022-09-23T04:29:14.902Z,90.41
2022-09-23T04:29:45.490Z,90.52
2022-09-23T04:30:16.028Z,90.52
2022-09-23T04:30:46.618Z,90.62
2022-09-23T04:31:17.247Z,90.62
2022-09-23T04:31:48.013Z,90.62
2022-09-23T04:32:18.622Z,90.41
2022-09-23T04:32:49.206Z,90.31
2022-09-23T04:33:19.762Z,90.41
2022-09-23T04:33:50.340Z,90.62
2022-09-23T04:34:20.927Z,90.83
2022-09-23T04:34:51.509Z,90.52
2022-09-23T04:35:22.085Z,90.83
2022-09-23T04:35:52.652Z,91.14
2022-09-23T04:36:23.158Z,91.55
2022-09-23T04:36:53.778Z,91.86
2022-09-23T04:37:24.310Z,91.66
2022-09-23T04:37:54.877Z,91.66
2022-09-23T04:38:25.422Z,91.35
2022-09-23T04:38:56.450Z,91.39
2022-09-23T04:39:27.483Z,91.39
2022-09-23T04:39:58.488Z,91.39
2022-09-23T04:40:29.148Z,91.08
2022-09-23T04:40:59.778Z,90.87
2022-09-23T04:41:30.322Z,90.93
2022-09-23T04:42:00.907Z,91.14
2022-09-23T04:42:31.429Z,91.14
2022-09-23T04:43:02.428Z,91.03
2022-09-23T04:43:33.441Z,90.83
2022-09-23T04:44:04.450Z,90.62
2022-09-23T04:44:35.524Z,90.52
2022-09-23T04:45:06.090Z,90.41
2022-09-23T04:45:36.622Z,90.20
2022-09-23T04:46:07.162Z,90.10
2022-09-23T04:46:38.230Z,90.41
2022-09-23T04:47:08.878Z,90.62
2022-09-23T04:47:39.385Z,90.62
2022-09-23T04:48:09.914Z,90.10
2022-09-23T04:48:40.441Z,89.79
2022-09-23T04:49:11.490Z,89.58
2022-09-23T04:49:42.009Z,89.58
2022-09-23T04:50:13.038Z,89.89
2022-09-23T04:50:44.035Z,90.20
2022-09-23T04:51:15.099Z,89.79
2022-09-23T04:51:46.094Z,89.89
2022-09-23T04:52:17.099Z,90.00
2022-09-23T04:52:48.123Z,89.58
2022-09-23T04:53:19.153Z,89.48
2022-09-23T04:53:50.185Z,89.79
2022-09-23T04:54:21.208Z,89.89
2022-09-23T04:54:51.723Z,89.79
2022-09-23T04:55:22.237Z,89.37
2022-09-23T04:55:53.271Z,89.48
2022-09-23T04:56:24.344Z,89.48
2022-09-23T04:56:55.351Z,89.69
2022-09-23T04:57:26.375Z,90.10
2022-09-23T04:57:56.884Z,90.31
2022-09-23T04:58:27.889Z,90.83
2022-09-23T04:58:58.414Z,91.14
2022-09-23T04:59:28.943Z,90.52
2022-09-23T04:59:59.470Z,89.89
2022-09-23T05:00:30.535Z,89.69
2022-09-23T05:01:05.119Z,89.37
2022-09-23T05:01:31.811Z,89.48
2022-09-23T05:02:02.451Z,89.58
2022-09-23T05:02:33.051Z,89.83
2022-09-23T05:03:03.614Z,89.83
2022-09-23T05:03:34.131Z,90.04
2022-09-23T05:04:05.195Z,90.14
2022-09-23T05:04:35.704Z,90.45
2022-09-23T05:05:06.732Z,90.87
2022-09-23T05:05:37.761Z,90.77
2022-09-23T05:06:08.786Z,90.66
2022-09-23T05:06:39.819Z,90.45
2022-09-23T05:07:10.821Z,90.56
2022-09-23T05:07:41.348Z,90.87
2022-09-23T05:08:12.383Z,91.28
2022-09-23T05:08:43.409Z,91.80
2022-09-23T05:09:13.940Z,91.60
2022-09-23T05:09:44.454Z,91.08
2022-09-23T05:10:15.476Z,90.87
2022-09-23T05:10:46.509Z,90.87
2022-09-23T05:11:17.524Z,90.97
2022-09-23T05:11:48.587Z,90.66
2022-09-23T05:12:19.070Z,90.56
2022-09-23T05:12:53.716Z,91.18
2022-09-23T05:13:20.852Z,91.08
2022-09-23T05:13:51.352Z,90.66
2022-09-23T05:14:21.868Z,90.66
2022-09-23T05:14:52.397Z,90.87
2022-09-23T05:15:23.434Z,91.08
2022-09-23T05:15:54.465Z,91.08
2022-09-23T05:16:25.624Z,91.08
2022-09-23T05:16:56.126Z,90.66
2022-09-23T05:17:27.157Z,90.35
2022-09-23T05:17:58.232Z,90.56
2022-09-23T05:18:28.728Z,90.56
2022-09-23T05:18:59.276Z,90.87
2022-09-23T05:19:29.781Z,91.28
2022-09-23T05:20:00.807Z,91.18
2022-09-23T05:20:31.344Z,90.77
2022-09-23T05:21:01.878Z,90.87
2022-09-23T05:21:32.396Z,90.97
2022-09-23T05:22:03.386Z,91.08
2022-09-23T05:22:33.929Z,91.28
2022-09-23T05:23:04.977Z,91.60
2022-09-23T05:23:35.489Z,91.70
2022-09-23T05:24:06.507Z,91.49
2022-09-23T05:24:37.033Z,91.39
2022-09-23T05:25:08.037Z,91.28
2022-09-23T05:25:39.048Z,91.28
2022-09-23T05:26:09.557Z,91.28
2022-09-23T05:26:40.556Z,91.28
2022-09-23T05:27:11.616Z,91.39
2022-09-23T05:27:42.613Z,91.28
2022-09-23T05:28:13.625Z,91.18
2022-09-23T05:28:44.615Z,91.28
2022-09-23T05:29:15.622Z,91.28
2022-09-23T05:29:46.615Z,91.39
2022-09-23T05:30:17.626Z,91.39
2022-09-23T05:30:48.617Z,91.45
2022-09-23T05:31:20.730Z,91.45
2022-09-23T05:31:50.491Z,91.24
2022-09-23T05:32:21.033Z,91.24
2022-09-23T05:32:52.043Z,91.14
2022-09-23T05:33:22.565Z,91.03
2022-09-23T05:33:53.600Z,90.83
2022-09-23T05:34:24.614Z,91.03
2022-09-23T05:34:55.622Z,90.93
2022-09-23T05:35:26.620Z,90.62
2022-09-23T05:35:57.154Z,90.62
2022-09-23T05:36:28.152Z,90.93
2022-09-23T05:36:59.180Z,90.83
2022-09-23T05:37:29.686Z,90.83
2022-09-23T05:38:00.712Z,90.72
2022-09-23T05:38:31.716Z,90.52
2022-09-23T05:39:02.840Z,90.52
2022-09-23T05:39:33.441Z,90.52
2022-09-23T05:40:03.963Z,90.93
2022-09-23T05:40:34.597Z,90.72
2022-09-23T05:41:05.104Z,90.41
2022-09-23T05:41:36.153Z,91.03
2022-09-23T05:42:06.683Z,91.45
2022-09-23T05:42:37.339Z,91.86
2022-09-23T05:43:07.812Z,92.28
2022-09-23T05:43:38.817Z,92.38
2022-09-23T05:44:09.350Z,92.49
2022-09-23T05:44:39.869Z,92.69
2022-09-23T05:45:10.910Z,92.90
2022-09-23T05:45:41.942Z,93.01
2022-09-23T05:46:13.055Z,92.80
2022-09-23T05:46:43.626Z,92.59
2022-09-23T05:47:14.146Z,92.49
2022-09-23T05:47:45.186Z,92.38
2022-09-23T05:48:16.203Z,92.28
2022-09-23T05:48:47.253Z,92.18
2022-09-23T05:49:17.804Z,92.38
2022-09-23T05:49:59.544Z,92.49
2022-09-23T05:50:19.023Z,92.38
2022-09-23T05:50:50.057Z,92.49
2022-09-23T05:51:21.094Z,92.66
2022-09-23T05:51:52.103Z,92.35
2022-09-23T05:52:23.123Z,92.03
2022-09-23T05:52:54.144Z,92.03
2022-09-23T05:53:25.152Z,92.03
2022-09-23T05:53:56.185Z,91.93
2022-09-23T05:54:27.222Z,91.52
2022-09-23T05:54:58.250Z,91.58
2022-09-23T05:55:29.250Z,91.47
2022-09-23T05:55:59.815Z,91.58
2022-09-23T05:56:30.320Z,91.89
2022-09-23T05:57:04.276Z,91.89
2022-09-23T05:57:31.429Z,91.89
2022-09-23T05:58:01.980Z,91.99
2022-09-23T05:58:32.988Z,91.89
2022-09-23T05:59:04.016Z,91.68
2022-09-23T05:59:35.049Z,91.89
2022-09-23T06:00:06.080Z,91.99
2022-09-23T06:00:37.135Z,91.78
2022-09-23T06:01:07.617Z,91.89
2022-09-23T06:01:38.916Z,91.78
2022-09-23T06:02:09.507Z,91.68
2022-09-23T06:02:40.121Z,91.74
2022-09-23T06:03:10.688Z,92.05
2022-09-23T06:03:41.226Z,92.36
2022-09-23T06:04:12.269Z,92.05
2022-09-23T06:04:43.298Z,91.64
2022-09-23T06:05:14.331Z,91.74
2022-09-23T06:05:45.343Z,91.95
2022-09-23T06:06:15.877Z,92.36
2022-09-23T06:06:46.898Z,92.36
2022-09-23T06:07:17.431Z,92.26
2022-09-23T06:07:48.497Z,91.95
2022-09-23T06:08:19.519Z,91.64
2022-09-23T06:08:50.564Z,91.64
2022-09-23T06:09:21.574Z,91.53
2022-09-23T06:09:52.108Z,91.53
2022-09-23T06:10:22.610Z,91.85
2022-09-23T06:10:54.680Z,92.22
2022-09-23T06:11:24.177Z,92.53
2022-09-23T06:11:55.257Z,92.32
2022-09-23T06:12:25.743Z,92.11
2022-09-23T06:12:56.753Z,92.32
2022-09-23T06:13:27.300Z,92.43
2022-09-23T06:13:58.292Z,92.01
2022-09-23T06:14:29.292Z,91.60
2022-09-23T06:15:00.295Z,91.80
2022-09-23T06:15:31.391Z,92.01
2022-09-23T06:16:02.060Z,91.80
2022-09-23T06:16:32.680Z,91.91
2022-09-23T06:17:03.201Z,92.11
2022-09-23T06:17:33.851Z,92.22
2022-09-23T06:18:04.344Z,92.43
2022-09-23T06:18:35.364Z,92.53
2022-09-23T06:19:06.994Z,92.53
2022-09-23T06:19:37.130Z,92.94
2022-09-23T06:20:08.164Z,93.15
2022-09-23T06:20:39.180Z,93.25
2022-09-23T06:21:10.197Z,93.35
2022-09-23T06:21:40.730Z,93.35
2022-09-23T06:22:11.292Z,93.35
2022-09-23T06:22:41.804Z,93.46
2022-09-23T06:23:12.377Z,93.46
2022-09-23T06:23:42.897Z,93.56
2022-09-23T06:24:18.443Z,93.66
2022-09-23T06:24:44.691Z,93.87
2022-09-23T06:25:15.714Z,94.08
2022-09-23T06:25:46.242Z,94.29
2022-09-23T06:26:16.777Z,94.49
2022-09-23T06:26:47.317Z,94.60
2022-09-23T06:27:18.347Z,94.81
2022-09-23T06:27:49.353Z,94.70
2022-09-23T06:28:20.377Z,94.70
2022-09-23T06:28:51.474Z,94.70
2022-09-23T06:29:21.945Z,94.70
2022-09-23T06:29:52.971Z,94.60
2022-09-23T06:30:24.006Z,94.70
2022-09-23T06:30:55.084Z,95.01
2022-09-23T06:31:25.665Z,95.22
2022-09-23T06:31:56.217Z,95.22
2022-09-23T06:32:26.737Z,95.01
2022-09-23T06:32:57.257Z,95.22
2022-09-23T06:33:35.703Z,95.32
2022-09-23T06:34:09.125Z,95.64
2022-09-23T06:34:29.966Z,95.53